createdAt,value
2023-05-14T00:00:18.290Z,880.6154
2023-05-14T00:01:20.010Z,885.9231
2023-05-14T00:02:21.636Z,879.3846
2023-05-14T00:03:23.361Z,886.7692
2023-05-14T00:04:24.895Z,883.0000
2023-05-14T00:05:26.563Z,872.5385
2023-05-14T00:06:28.180Z,876.8461
2023-05-14T00:07:30.273Z,879.3077
2023-05-14T00:08:31.460Z,884.3077
2023-05-14T00:09:33.158Z,887.7692
2023-05-14T00:10:34.766Z,881.6154
2023-05-14T00:11:36.445Z,883.7692
2023-05-14T00:12:38.070Z,882.6154
2023-05-14T00:13:39.701Z,880.4615
2023-05-14T00:14:41.366Z,874.3077
2023-05-14T00:15:43.017Z,872.2308
2023-05-14T00:16:44.629Z,885.3846
2023-05-14T00:17:46.380Z,883.9231
2023-05-14T00:18:47.916Z,881.1539
2023-05-14T00:19:49.571Z,874.7692
2023-05-14T00:20:51.728Z,876.1539
2023-05-14T00:21:52.832Z,884.0000
2023-05-14T00:22:54.539Z,880.4615
2023-05-14T00:23:56.159Z,886.3846
2023-05-14T00:24:57.822Z,881.1539
2023-05-14T00:25:59.426Z,883.9231
2023-05-14T00:27:01.079Z,878.4615
2023-05-14T00:28:02.744Z,880.0769
2023-05-14T00:29:04.331Z,884.6154
2023-05-14T00:30:06.113Z,889.6923
2023-05-14T00:31:07.697Z,885.8461
2023-05-14T00:32:09.258Z,877.3077
2023-05-14T00:33:10.998Z,882.2308
2023-05-14T00:34:12.568Z,881.3846
2023-05-14T00:35:14.251Z,886.4615
2023-05-14T00:36:15.847Z,884.8461
2023-05-14T00:37:17.536Z,887.2308
2023-05-14T00:38:19.278Z,889.0000
2023-05-14T00:39:20.754Z,891.9231
2023-05-14T00:40:22.871Z,880.1539
2023-05-14T00:41:24.065Z,884.0769
2023-05-14T00:42:25.724Z,891.4615
2023-05-14T00:43:27.386Z,887.6154
2023-05-14T00:44:29.089Z,886.0000
2023-05-14T00:45:30.637Z,895.7692
2023-05-14T00:46:32.324Z,896.2308
2023-05-14T00:47:34.030Z,883.1539
2023-05-14T00:48:35.623Z,880.5385
2023-05-14T00:49:37.248Z,881.4615
2023-05-14T00:50:38.970Z,882.0000
2023-05-14T00:51:40.524Z,886.4615
2023-05-14T00:52:42.255Z,889.8461
2023-05-14T00:53:43.859Z,896.6154
2023-05-14T00:54:45.556Z,883.5385
2023-05-14T00:55:47.027Z,881.6923
2023-05-14T00:56:48.754Z,880.5385
2023-05-14T00:57:50.317Z,882.5385
2023-05-14T00:58:52.996Z,878.6923
2023-05-14T00:59:53.753Z,881.8461
2023-05-14T01:00:55.291Z,885.2308
2023-05-14T01:01:56.922Z,885.6923
2023-05-14T01:02:58.701Z,882.8461
2023-05-14T01:04:00.290Z,884.3846
2023-05-14T01:05:02.319Z,887.9231
2023-05-14T01:06:03.495Z,885.9231
2023-05-14T01:07:05.139Z,884.8461
2023-05-14T01:08:06.770Z,881.6154
2023-05-14T01:09:08.431Z,885.9231
2023-05-14T01:10:11.044Z,880.6923
2023-05-14T01:11:11.753Z,878.8461
2023-05-14T01:12:13.355Z,878.0000
2023-05-14T01:13:14.968Z,882.7692
2023-05-14T01:14:17.108Z,888.0769
2023-05-14T01:15:18.613Z,881.3846
2023-05-14T01:16:20.774Z,879.9231
2023-05-14T01:17:21.534Z,873.1539
2023-05-14T01:18:23.218Z,875.1539
2023-05-14T01:19:24.915Z,877.0769
2023-05-14T01:20:26.639Z,881.0769
2023-05-14T01:21:28.201Z,886.5385
2023-05-14T01:22:29.919Z,886.5385
2023-05-14T01:23:31.398Z,887.0000
2023-05-14T01:24:33.085Z,883.9231
2023-05-14T01:25:34.789Z,882.8461
2023-05-14T01:26:36.472Z,880.4615
2023-05-14T01:27:38.704Z,881.4615
2023-05-14T01:28:39.794Z,888.9231
2023-05-14T01:29:41.317Z,882.1539
2023-05-14T01:30:43.355Z,880.5385
2023-05-14T01:31:44.651Z,884.9231
2023-05-14T01:32:46.322Z,880.1539
2023-05-14T01:33:47.889Z,880.7692
2023-05-14T01:34:49.542Z,880.3846
2023-05-14T01:35:51.251Z,878.6154
2023-05-14T01:36:53.263Z,881.7692
2023-05-14T01:37:54.502Z,871.3077
2023-05-14T01:38:56.109Z,874.3846
2023-05-14T01:39:57.798Z,876.1539
2023-05-14T01:40:59.426Z,878.1539
2023-05-14T01:42:01.318Z,877.2308
2023-05-14T01:43:02.759Z,876.0000
2023-05-14T01:44:04.485Z,876.1539
2023-05-14T01:45:05.973Z,880.6923
2023-05-14T01:46:07.669Z,875.0769
2023-05-14T01:47:09.800Z,871.2308
2023-05-14T01:48:11.140Z,875.5385
2023-05-14T01:49:12.542Z,874.8461
2023-05-14T01:50:14.241Z,875.4615
2023-05-14T01:51:15.861Z,875.2308
2023-05-14T01:52:17.814Z,874.4615
2023-05-14T01:53:19.216Z,872.9231
2023-05-14T01:54:20.824Z,871.7692
2023-05-14T01:55:22.451Z,874.8461
2023-05-14T01:56:24.119Z,869.6923
2023-05-14T01:57:25.796Z,872.6923
2023-05-14T01:58:27.386Z,878.8461
2023-05-14T01:59:29.104Z,871.9231
2023-05-14T02:00:30.613Z,871.5385
2023-05-14T02:01:33.325Z,867.0769
2023-05-14T02:02:33.969Z,867.3077
2023-05-14T02:03:35.576Z,866.6154
2023-05-14T02:04:37.203Z,865.0000
2023-05-14T02:05:38.841Z,874.0769
2023-05-14T02:06:40.710Z,867.7692
2023-05-14T02:07:42.195Z,859.4615
2023-05-14T02:08:43.752Z,864.3846
2023-05-14T02:09:45.457Z,859.2308
2023-05-14T02:10:47.048Z,865.3846
2023-05-14T02:11:48.795Z,867.7692
2023-05-14T02:12:50.386Z,868.0000
2023-05-14T02:13:52.045Z,865.1539
2023-05-14T02:14:53.639Z,866.3077
2023-05-14T02:15:55.350Z,866.7692
2023-05-14T02:16:56.949Z,862.3846
2023-05-14T02:17:58.836Z,864.8461
2023-05-14T02:19:01.281Z,865.5385
2023-05-14T02:20:01.878Z,870.6154
2023-05-14T02:21:03.549Z,867.8461
2023-05-14T02:22:05.164Z,868.0769
2023-05-14T02:23:07.761Z,863.3077
2023-05-14T02:24:08.498Z,863.7692
2023-05-14T02:25:10.080Z,864.3846
2023-05-14T02:26:11.708Z,861.8461
2023-05-14T02:27:13.395Z,860.3077
2023-05-14T02:28:15.747Z,861.4615
2023-05-14T02:29:16.678Z,858.5385
2023-05-14T02:30:18.296Z,857.0000
2023-05-14T02:31:20.068Z,858.9231
2023-05-14T02:32:21.603Z,857.0769
2023-05-14T02:33:23.375Z,856.1539
2023-05-14T02:34:25.051Z,850.5385
2023-05-14T02:35:26.542Z,856.0000
2023-05-14T02:36:28.245Z,849.0000
2023-05-14T02:37:29.824Z,854.7692
2023-05-14T02:38:31.491Z,847.6923
2023-05-14T02:39:33.077Z,848.5385
2023-05-14T02:40:34.773Z,852.2308
2023-05-14T02:41:36.346Z,852.6154
2023-05-14T02:42:38.221Z,851.3077
2023-05-14T02:43:39.641Z,856.3077
2023-05-14T02:44:41.334Z,848.2308
2023-05-14T02:45:42.968Z,850.4615
2023-05-14T02:46:44.623Z,850.0000
2023-05-14T02:47:46.384Z,857.3846
2023-05-14T02:48:48.739Z,849.6923
2023-05-14T02:49:49.526Z,852.0769
2023-05-14T02:50:51.222Z,847.7692
2023-05-14T02:51:52.799Z,843.1539
2023-05-14T02:52:54.703Z,846.1539
2023-05-14T02:53:57.196Z,851.1539
2023-05-14T02:54:58.866Z,867.6923
2023-05-14T02:55:59.622Z,881.6154
2023-05-14T02:57:01.188Z,892.9231
2023-05-14T02:58:02.863Z,894.9231
2023-05-14T02:59:04.579Z,899.0769
2023-05-14T03:00:06.151Z,898.9231
2023-05-14T03:01:07.867Z,897.7692
2023-05-14T03:02:09.407Z,893.8461
2023-05-14T03:03:11.118Z,888.7692
2023-05-14T03:04:12.688Z,888.9231
2023-05-14T03:05:14.314Z,881.4615
2023-05-14T03:06:15.995Z,878.0000
2023-05-14T03:07:17.643Z,876.6923
2023-05-14T03:08:19.329Z,880.4615
2023-05-14T03:09:20.900Z,885.7692
2023-05-14T03:10:22.686Z,889.7692
2023-05-14T03:11:24.340Z,882.8461
2023-05-14T03:12:25.821Z,877.0000
2023-05-14T03:13:27.507Z,879.2308
2023-05-14T03:14:29.146Z,876.4615
2023-05-14T03:15:30.791Z,881.2308
2023-05-14T03:16:33.379Z,881.0000
2023-05-14T03:17:34.088Z,880.8461
2023-05-14T03:18:35.836Z,884.3077
2023-05-14T03:19:37.370Z,871.0000
2023-05-14T03:20:38.932Z,873.8461
2023-05-14T03:21:40.630Z,874.8461
2023-05-14T03:22:42.235Z,874.8461
2023-05-14T03:23:43.969Z,875.6154
2023-05-14T03:24:45.538Z,897.6154
2023-05-14T03:25:47.562Z,888.1539
2023-05-14T03:26:49.208Z,874.3846
2023-05-14T03:27:50.593Z,872.0000
2023-05-14T03:28:52.100Z,868.3846
2023-05-14T03:29:53.746Z,875.8461
2023-05-14T03:30:55.745Z,872.1539
2023-05-14T03:31:57.354Z,884.8461
2023-05-14T03:32:58.990Z,874.4615
2023-05-14T03:34:00.409Z,875.6154
2023-05-14T03:35:02.017Z,869.0000
2023-05-14T03:36:03.686Z,875.5385
2023-05-14T03:37:05.266Z,876.1539
2023-05-14T03:38:07.008Z,877.3077
2023-05-14T03:39:08.648Z,877.5385
2023-05-14T03:40:10.267Z,875.3077
2023-05-14T03:41:11.864Z,879.1539
2023-05-14T03:42:13.568Z,869.9231
2023-05-14T03:43:15.160Z,874.7692
2023-05-14T03:44:16.854Z,873.5385
2023-05-14T03:45:18.558Z,870.6154
2023-05-14T03:46:20.129Z,867.4615
2023-05-14T03:47:22.064Z,871.0000
2023-05-14T03:48:23.841Z,867.7692
2023-05-14T03:49:25.067Z,874.6923
2023-05-14T03:50:26.714Z,869.3077
2023-05-14T03:51:28.304Z,868.0769
2023-05-14T03:52:30.057Z,869.9231
2023-05-14T03:53:31.659Z,872.5385
2023-05-14T03:54:33.271Z,866.3077
2023-05-14T03:55:34.862Z,870.1539
2023-05-14T03:56:36.612Z,871.4615
2023-05-14T03:57:38.198Z,873.2308
2023-05-14T03:58:39.866Z,876.4615
2023-05-14T03:59:41.465Z,880.6923
2023-05-14T04:00:43.094Z,880.2308
2023-05-14T04:01:44.923Z,876.9231
2023-05-14T04:02:46.562Z,878.9231
2023-05-14T04:03:48.580Z,875.8461
2023-05-14T04:04:49.814Z,880.1539
2023-05-14T04:05:51.878Z,889.3077
2023-05-14T04:06:53.922Z,884.7692
2023-05-14T04:07:54.593Z,890.3077
2023-05-14T04:08:56.361Z,888.6154
2023-05-14T04:09:57.921Z,885.7692
2023-05-14T04:10:59.524Z,888.5385
2023-05-14T04:12:01.186Z,889.3077
2023-05-14T04:13:02.837Z,886.3846
2023-05-14T04:14:05.367Z,882.1539
2023-05-14T04:15:06.149Z,888.3077
2023-05-14T04:16:07.835Z,887.6154
2023-05-14T04:17:09.447Z,887.3077
2023-05-14T04:18:11.029Z,889.6923
2023-05-14T04:19:12.787Z,884.9231
2023-05-14T04:20:14.348Z,891.2308
2023-05-14T04:21:16.039Z,892.6923
2023-05-14T04:22:17.612Z,883.2308
2023-05-14T04:23:19.233Z,886.6154
2023-05-14T04:24:20.908Z,890.4615
2023-05-14T04:25:22.664Z,892.0000
2023-05-14T04:26:24.165Z,890.3077
2023-05-14T04:27:25.892Z,888.3846
2023-05-14T04:28:27.516Z,887.1539
2023-05-14T04:29:29.176Z,886.6923
2023-05-14T04:30:30.889Z,897.3077
2023-05-14T04:31:33.440Z,895.8461
2023-05-14T04:32:34.088Z,893.0000
2023-05-14T04:33:35.722Z,894.6154
2023-05-14T04:34:37.342Z,891.2308
2023-05-14T04:35:39.023Z,885.2308
2023-05-14T04:36:40.639Z,887.5385
2023-05-14T04:37:42.368Z,883.6154
2023-05-14T04:38:43.994Z,889.8461
2023-05-14T04:39:45.586Z,895.0000
2023-05-14T04:40:47.227Z,896.5385
2023-05-14T04:41:48.876Z,893.8461
2023-05-14T04:42:50.580Z,903.5385
2023-05-14T04:43:52.140Z,907.3846
2023-05-14T04:44:53.811Z,902.0769
2023-05-14T04:45:55.432Z,897.7692
2023-05-14T04:46:57.136Z,903.3077
2023-05-14T04:47:58.768Z,916.1539
2023-05-14T04:49:00.361Z,903.1539
2023-05-14T04:50:02.137Z,902.5385
2023-05-14T04:51:05.634Z,905.3846
2023-05-14T04:52:05.318Z,900.8461
2023-05-14T04:53:06.985Z,914.0000
2023-05-14T04:54:08.597Z,919.9231
2023-05-14T04:55:10.287Z,919.3077
2023-05-14T04:56:11.965Z,924.3846
2023-05-14T04:57:13.597Z,930.9231
2023-05-14T04:58:15.174Z,939.3077
2023-05-14T04:59:16.904Z,953.0769
2023-05-14T05:00:19.394Z,935.1539
2023-05-14T05:01:20.177Z,931.2308
2023-05-14T05:02:21.798Z,936.1539
2023-05-14T05:03:23.408Z,954.3846
2023-05-14T05:04:25.082Z,974.0000
2023-05-14T05:05:26.698Z,978.6154
2023-05-14T05:06:28.317Z,963.6154
2023-05-14T05:07:30.073Z,941.0769
2023-05-14T05:08:31.700Z,965.2308
2023-05-14T05:09:33.275Z,974.4615
2023-05-14T05:10:34.936Z,983.1539
2023-05-14T05:11:36.619Z,981.8461
2023-05-14T05:12:39.180Z,960.0000
2023-05-14T05:13:39.894Z,963.9231
2023-05-14T05:14:41.436Z,978.4615
2023-05-14T05:15:43.535Z,995.9231
2023-05-14T05:16:45.655Z,996.0769
2023-05-14T05:17:46.436Z,986.3846
2023-05-14T05:18:48.060Z,976.3077
2023-05-14T05:19:49.660Z,984.2308
2023-05-14T05:20:51.279Z,993.7692
2023-05-14T05:21:52.927Z,1006.4615
2023-05-14T05:22:54.615Z,1013.3077
2023-05-14T05:23:56.272Z,1006.9231
2023-05-14T05:24:57.845Z,989.6154
2023-05-14T05:25:59.549Z,1009.2308
2023-05-14T05:27:01.249Z,1018.0769
2023-05-14T05:28:02.839Z,1024.3846
2023-05-14T05:29:04.465Z,1015.1539
2023-05-14T05:30:06.233Z,1001.1539
2023-05-14T05:31:07.857Z,993.9231
2023-05-14T05:32:09.436Z,1018.2308
2023-05-14T05:33:11.266Z,1032.4615
2023-05-14T05:34:12.726Z,1039.5385
2023-05-14T05:35:14.501Z,1027.3077
2023-05-14T05:36:16.077Z,1008.0769
2023-05-14T05:37:17.784Z,1021.6154
2023-05-14T05:38:19.424Z,1037.5385
2023-05-14T05:39:21.067Z,1045.9231
2023-05-14T05:40:22.770Z,1032.6923
2023-05-14T05:41:24.316Z,1025.0769
2023-05-14T05:42:25.913Z,1018.1539
2023-05-14T05:43:27.582Z,1040.7693
2023-05-14T05:44:29.263Z,1047.4615
2023-05-14T05:45:30.867Z,1044.6154
2023-05-14T05:46:32.603Z,1042.3846
2023-05-14T05:47:34.143Z,1022.6154
2023-05-14T05:48:35.763Z,1034.0000
2023-05-14T05:49:37.455Z,1049.3077
2023-05-14T05:50:39.078Z,1054.4615
2023-05-14T05:51:40.714Z,1053.7693
2023-05-14T05:52:42.314Z,1057.6154
2023-05-14T05:53:44.903Z,1027.4615
2023-05-14T05:54:45.671Z,1041.8462
2023-05-14T05:55:47.317Z,1057.4615
2023-05-14T05:56:48.888Z,1064.7693
2023-05-14T05:57:50.602Z,1050.4615
2023-05-14T05:58:52.949Z,1041.0769
2023-05-14T05:59:54.911Z,1038.0769
2023-05-14T06:00:55.468Z,1050.4615
2023-05-14T06:01:57.194Z,1068.2307
2023-05-14T06:02:58.822Z,1063.8462
2023-05-14T06:04:00.512Z,1057.1538
2023-05-14T06:05:02.214Z,1039.9231
2023-05-14T06:06:03.734Z,1049.6923
2023-05-14T06:07:05.651Z,1066.6923
2023-05-14T06:08:07.028Z,1081.0000
2023-05-14T06:09:08.686Z,1082.3846
2023-05-14T06:10:10.358Z,1069.6923
2023-05-14T06:11:11.894Z,1043.7693
2023-05-14T06:12:13.624Z,1051.1538
2023-05-14T06:13:15.229Z,1071.3846
2023-05-14T06:14:16.937Z,1080.2307
2023-05-14T06:15:18.917Z,1079.5385
2023-05-14T06:16:20.199Z,1066.5385
2023-05-14T06:17:21.811Z,1048.3846
2023-05-14T06:18:23.485Z,1062.3846
2023-05-14T06:19:25.145Z,1073.0000
2023-05-14T06:20:26.906Z,1086.2307
2023-05-14T06:21:28.408Z,1085.9231
2023-05-14T06:22:30.041Z,1059.7693
2023-05-14T06:23:31.641Z,1039.5385
2023-05-14T06:24:33.448Z,1065.2307
2023-05-14T06:25:34.976Z,1085.6923
2023-05-14T06:26:36.632Z,1088.9231
2023-05-14T06:27:38.246Z,1078.3077
2023-05-14T06:28:39.992Z,1074.6923
2023-05-14T06:29:41.563Z,1059.7693
2023-05-14T06:30:43.283Z,1080.5385
2023-05-14T06:31:44.898Z,1090.6923
2023-05-14T06:32:46.593Z,1096.0769
2023-05-14T06:33:48.112Z,1098.8462
2023-05-14T06:34:49.883Z,1063.7693
2023-05-14T06:35:51.446Z,1072.2307
2023-05-14T06:36:53.103Z,1084.4615
2023-05-14T06:37:54.803Z,1100.8462
2023-05-14T06:38:56.368Z,1104.8462
2023-05-14T06:39:58.172Z,1095.0000
2023-05-14T06:40:59.707Z,1079.7693
2023-05-14T06:42:01.367Z,1076.5385
2023-05-14T06:43:02.987Z,1097.3077
2023-05-14T06:44:04.603Z,1123.3846
2023-05-14T06:45:06.256Z,1109.6923
2023-05-14T06:46:08.426Z,1109.5385
2023-05-14T06:47:09.615Z,1079.4615
2023-05-14T06:48:11.235Z,1086.1538
2023-05-14T06:49:12.852Z,1117.1538
2023-05-14T06:50:14.561Z,1117.6923
2023-05-14T06:51:16.901Z,1118.5385
2023-05-14T06:52:17.766Z,1099.1538
2023-05-14T06:53:19.419Z,1101.3846
2023-05-14T06:54:21.068Z,1094.6923
2023-05-14T06:55:22.700Z,1111.1538
2023-05-14T06:56:24.405Z,1102.3077
2023-05-14T06:57:25.943Z,1105.1538
2023-05-14T06:58:27.627Z,1108.0000
2023-05-14T06:59:29.216Z,1109.2307
2023-05-14T07:00:30.980Z,1093.9231
2023-05-14T07:01:32.532Z,1103.9231
2023-05-14T07:02:34.158Z,1121.0769
2023-05-14T07:03:36.301Z,1121.0000
2023-05-14T07:04:37.469Z,1115.2307
2023-05-14T07:05:39.048Z,1103.6154
2023-05-14T07:06:40.801Z,1091.3846
2023-05-14T07:07:42.356Z,1110.9231
2023-05-14T07:08:44.051Z,1132.1538
2023-05-14T07:09:45.630Z,1129.4615
2023-05-14T07:10:47.385Z,1129.6923
2023-05-14T07:11:49.480Z,1097.6923
2023-05-14T07:12:50.616Z,1109.5385
2023-05-14T07:13:52.266Z,1129.3846
2023-05-14T07:14:53.933Z,1140.5385
2023-05-14T07:15:55.533Z,1131.8462
2023-05-14T07:16:57.245Z,1140.6154
2023-05-14T07:17:58.859Z,1119.6154
2023-05-14T07:19:00.558Z,1128.5385
2023-05-14T07:20:02.134Z,1150.6154
2023-05-14T07:21:03.801Z,1154.5385
2023-05-14T07:22:05.414Z,1133.0000
2023-05-14T07:23:07.050Z,1119.1538
2023-05-14T07:24:08.716Z,1114.7693
2023-05-14T07:25:10.344Z,1130.1538
2023-05-14T07:26:12.015Z,1160.3846
2023-05-14T07:27:13.615Z,1150.9231
2023-05-14T07:28:15.254Z,1144.0000
2023-05-14T07:29:16.983Z,1131.7693
2023-05-14T07:30:18.533Z,1123.7693
2023-05-14T07:31:20.309Z,1123.3077
2023-05-14T07:32:21.852Z,1152.6923
2023-05-14T07:33:23.509Z,1152.7693
2023-05-14T07:34:25.148Z,1148.6923
2023-05-14T07:35:26.747Z,1133.5385
2023-05-14T07:36:28.426Z,1127.0769
2023-05-14T07:37:30.109Z,1148.2307
2023-05-14T07:38:31.720Z,1163.5385
2023-05-14T07:39:33.345Z,1143.5385
2023-05-14T07:40:34.980Z,1148.6154
2023-05-14T07:41:37.333Z,1126.0769
2023-05-14T07:42:38.263Z,1121.8462
2023-05-14T07:43:39.949Z,1147.6154
2023-05-14T07:44:41.616Z,1161.7693
2023-05-14T07:45:43.214Z,1153.6923
2023-05-14T07:46:44.928Z,1142.3846
2023-05-14T07:47:46.534Z,1135.1538
2023-05-14T07:48:48.126Z,1144.7693
2023-05-14T07:49:49.778Z,1138.7693
2023-05-14T07:50:51.444Z,1140.9231
2023-05-14T07:51:53.843Z,1151.2307
2023-05-14T07:52:54.813Z,1138.6923
2023-05-14T07:53:56.512Z,1125.8462
2023-05-14T07:54:58.279Z,1155.3846
2023-05-14T07:55:59.770Z,1178.1538
2023-05-14T07:57:01.511Z,1185.1538
2023-05-14T07:58:03.574Z,1167.3077
2023-05-14T07:59:04.751Z,1159.1538
2023-05-14T08:00:06.545Z,1154.6154
2023-05-14T08:01:09.078Z,1158.0000
2023-05-14T08:02:09.711Z,1173.0769
2023-05-14T08:03:11.452Z,1180.3077
2023-05-14T08:04:13.159Z,1166.2307
2023-05-14T08:05:14.608Z,1179.9231
2023-05-14T08:06:16.273Z,1162.3846
2023-05-14T08:07:17.906Z,1169.3077
2023-05-14T08:08:19.516Z,1195.3077
2023-05-14T08:09:21.210Z,1202.9231
2023-05-14T08:10:24.025Z,1186.0000
2023-05-14T08:11:24.420Z,1166.2307
2023-05-14T08:12:27.094Z,1148.3077
2023-05-14T08:13:27.722Z,1158.5385
2023-05-14T08:14:29.632Z,1174.1538
2023-05-14T08:15:31.023Z,1165.2307
2023-05-14T08:16:32.785Z,1147.8462
2023-05-14T08:17:34.363Z,1126.3846
2023-05-14T08:18:36.040Z,1126.8462
2023-05-14T08:19:38.561Z,1157.3077
2023-05-14T08:20:39.294Z,1169.9231
2023-05-14T08:21:41.052Z,1152.4615
2023-05-14T08:22:42.685Z,1138.6154
2023-05-14T08:23:44.552Z,1112.9231
2023-05-14T08:24:45.926Z,1129.8462
2023-05-14T08:25:47.519Z,1162.3846
2023-05-14T08:26:49.264Z,1190.1538
2023-05-14T08:27:50.823Z,1140.4615
2023-05-14T08:28:52.488Z,1118.3077
2023-05-14T08:29:54.056Z,1113.8462
2023-05-14T08:30:55.759Z,1131.6923
2023-05-14T08:31:57.610Z,1151.7693
2023-05-14T08:32:59.716Z,1154.9231
2023-05-14T08:34:00.687Z,1122.2307
2023-05-14T08:35:02.278Z,1107.0000
2023-05-14T08:36:03.996Z,1122.4615
2023-05-14T08:37:05.640Z,1134.9231
2023-05-14T08:38:08.266Z,1163.8462
2023-05-14T08:39:09.029Z,1143.3077
2023-05-14T08:40:10.523Z,1120.0000
2023-05-14T08:41:12.317Z,1096.1538
2023-05-14T08:42:13.858Z,1116.3077
2023-05-14T08:43:15.580Z,1147.0000
2023-05-14T08:44:17.155Z,1164.1538
2023-05-14T08:45:18.864Z,1126.8462
2023-05-14T08:46:20.422Z,1103.1538
2023-05-14T08:47:22.123Z,1101.0769
2023-05-14T08:48:23.774Z,1146.6154
2023-05-14T08:49:25.366Z,1167.6154
2023-05-14T08:50:27.455Z,1150.6923
2023-05-14T08:51:28.636Z,1092.7693
2023-05-14T08:52:30.283Z,1075.0000
2023-05-14T08:53:31.953Z,1099.6923
2023-05-14T08:54:33.619Z,1137.5385
2023-05-14T08:55:35.213Z,1164.6923
2023-05-14T08:56:36.830Z,1124.1538
2023-05-14T08:57:38.542Z,1079.6923
2023-05-14T08:58:40.200Z,1071.9231
2023-05-14T08:59:41.894Z,1115.6154
2023-05-14T09:00:43.459Z,1143.6154
2023-05-14T09:01:45.146Z,1169.8462
2023-05-14T09:02:46.805Z,1112.1538
2023-05-14T09:03:48.351Z,1070.3077
2023-05-14T09:04:49.979Z,1077.6923
2023-05-14T09:05:51.807Z,1117.3846
2023-05-14T09:06:53.305Z,1149.8462
2023-05-14T09:07:55.009Z,1167.3846
2023-05-14T09:08:56.586Z,1097.6923
2023-05-14T09:09:58.322Z,1071.3077
2023-05-14T09:11:00.868Z,1088.6923
2023-05-14T09:12:01.583Z,1122.6154
2023-05-14T09:13:03.215Z,1157.2307
2023-05-14T09:14:04.775Z,1158.3846
2023-05-14T09:15:07.250Z,1088.5385
2023-05-14T09:16:08.156Z,1059.9231
2023-05-14T09:17:09.828Z,1083.1538
2023-05-14T09:18:11.372Z,1126.7693
2023-05-14T09:19:13.193Z,1149.9231
2023-05-14T09:20:14.693Z,1144.9231
2023-05-14T09:21:16.491Z,1092.3077
2023-05-14T09:22:17.985Z,1069.2307
2023-05-14T09:23:19.710Z,1089.9231
2023-05-14T09:24:21.381Z,1129.2307
2023-05-14T09:25:24.034Z,1138.3077
2023-05-14T09:26:24.520Z,1154.1538
2023-05-14T09:27:27.244Z,1088.0769
2023-05-14T09:28:27.844Z,1076.1538
2023-05-14T09:29:29.494Z,1108.1538
2023-05-14T09:30:32.522Z,1129.5385
2023-05-14T09:31:32.746Z,1162.3846
2023-05-14T09:32:35.552Z,1116.4615
2023-05-14T09:33:36.116Z,1069.6923
2023-05-14T09:34:38.108Z,1059.7693
2023-05-14T09:35:39.531Z,1084.3846
2023-05-14T09:36:41.165Z,1112.2307
2023-05-14T09:37:42.800Z,1156.3846
2023-05-14T09:38:44.441Z,1133.4615
2023-05-14T09:39:45.982Z,1067.5385
2023-05-14T09:40:47.750Z,1049.7693
2023-05-14T09:41:49.327Z,1087.5385
2023-05-14T09:42:50.982Z,1107.4615
2023-05-14T09:43:52.634Z,1140.0769
2023-05-14T09:44:54.261Z,1127.7693
2023-05-14T09:45:55.960Z,1064.1538
2023-05-14T09:46:57.614Z,1059.6154
2023-05-14T09:48:00.329Z,1086.4615
2023-05-14T09:49:00.806Z,1102.2307
2023-05-14T09:50:03.425Z,1136.3077
2023-05-14T09:51:04.738Z,1131.6923
2023-05-14T09:52:05.728Z,1065.1538
2023-05-14T09:53:07.472Z,1045.0000
2023-05-14T09:54:09.105Z,1076.8462
2023-05-14T09:55:10.675Z,1102.8462
2023-05-14T09:56:12.485Z,1128.0000
2023-05-14T09:57:14.055Z,1110.6154
2023-05-14T09:58:15.667Z,1056.3077
2023-05-14T09:59:17.593Z,1050.4615
2023-05-14T10:00:18.986Z,1084.6154
2023-05-14T10:01:21.704Z,1114.2307
2023-05-14T10:02:22.328Z,1147.7693
2023-05-14T10:03:23.929Z,1100.3846
2023-05-14T10:04:25.511Z,1055.9231
2023-05-14T10:05:27.209Z,1069.5385
2023-05-14T10:06:28.820Z,1112.8462
2023-05-14T10:07:30.449Z,1136.8462
2023-05-14T10:08:32.639Z,1151.5385
2023-05-14T10:09:33.784Z,1095.6154
2023-05-14T10:10:35.385Z,1067.6154
2023-05-14T10:11:38.101Z,1077.0000
2023-05-14T10:12:38.689Z,1126.7693
2023-05-14T10:13:40.282Z,1146.4615
2023-05-14T10:14:42.026Z,1162.0769
2023-05-14T10:15:43.612Z,1091.0769
2023-05-14T10:16:45.274Z,1047.5385
2023-05-14T10:17:47.085Z,1071.3077
2023-05-14T10:18:48.661Z,1128.2307
2023-05-14T10:19:50.223Z,1135.5385
2023-05-14T10:20:51.799Z,1156.6923
2023-05-14T10:21:53.521Z,1086.4615
2023-05-14T10:22:55.138Z,1051.0000
2023-05-14T10:23:56.973Z,1079.7693
2023-05-14T10:24:58.540Z,1129.2307
2023-05-14T10:26:00.201Z,1151.1538
2023-05-14T10:27:01.774Z,1170.2307
2023-05-14T10:28:03.385Z,1090.7693
2023-05-14T10:29:05.026Z,1057.7693
2023-05-14T10:30:06.656Z,1086.6923
2023-05-14T10:31:08.264Z,1129.3077
2023-05-14T10:32:10.062Z,1157.9231
2023-05-14T10:33:12.619Z,1159.6923
2023-05-14T10:34:13.193Z,1087.4615
2023-05-14T10:35:15.863Z,1064.4615
2023-05-14T10:36:16.484Z,1108.9231
2023-05-14T10:37:18.134Z,1140.2307
2023-05-14T10:38:19.712Z,1174.1538
2023-05-14T10:39:21.444Z,1143.9231
2023-05-14T10:40:23.133Z,1079.6154
2023-05-14T10:41:24.762Z,1069.8462
2023-05-14T10:42:26.315Z,1109.6154
2023-05-14T10:43:28.000Z,1153.2307
2023-05-14T10:44:29.632Z,1171.8462
2023-05-14T10:45:31.334Z,1131.6923
2023-05-14T10:46:32.936Z,1077.8462
2023-05-14T10:47:34.605Z,1075.4615
2023-05-14T10:48:36.196Z,1119.9231
2023-05-14T10:49:43.349Z,1158.2307
2023-05-14T10:50:39.516Z,1182.2307
2023-05-14T10:51:41.253Z,1119.7693
2023-05-14T10:52:42.780Z,1076.3846
2023-05-14T10:53:44.494Z,1082.3846
2023-05-14T10:54:46.080Z,1124.1538
2023-05-14T10:55:47.732Z,1145.7693
2023-05-14T10:56:49.407Z,1188.0000
2023-05-14T10:57:51.017Z,1108.7693
2023-05-14T10:58:52.664Z,1063.2307
2023-05-14T10:59:55.171Z,1093.9231
2023-05-14T11:00:56.025Z,1128.3077
2023-05-14T11:01:57.749Z,1156.2307
2023-05-14T11:02:59.368Z,1174.9231
2023-05-14T11:04:01.017Z,1087.4615
2023-05-14T11:05:04.440Z,1060.8462
2023-05-14T11:06:04.235Z,1088.6154
2023-05-14T11:07:05.905Z,1142.0769
2023-05-14T11:08:07.574Z,1170.5385
2023-05-14T11:09:09.131Z,1156.1538
2023-05-14T11:10:10.859Z,1111.1538
2023-05-14T11:11:12.508Z,1079.5385
2023-05-14T11:12:14.065Z,1104.7693
2023-05-14T11:13:15.681Z,1134.3846
2023-05-14T11:14:17.434Z,1152.3077
2023-05-14T11:15:19.029Z,1158.8462
2023-05-14T11:16:23.760Z,1118.6154
2023-05-14T11:17:22.302Z,1077.6154
2023-05-14T11:18:23.958Z,1100.6923
2023-05-14T11:19:25.627Z,1139.5385
2023-05-14T11:20:27.346Z,1167.5385
2023-05-14T11:21:29.007Z,1169.6923
2023-05-14T11:22:30.552Z,1117.6923
2023-05-14T11:23:32.168Z,1075.9231
2023-05-14T11:24:33.832Z,1096.9231
2023-05-14T11:25:35.547Z,1149.0000
2023-05-14T11:26:38.122Z,1170.8462
2023-05-14T11:27:38.762Z,1171.0000
2023-05-14T11:28:40.562Z,1122.2307
2023-05-14T11:29:42.090Z,1086.3846
2023-05-14T11:30:43.712Z,1094.1538
2023-05-14T11:31:45.475Z,1136.1538
2023-05-14T11:32:47.001Z,1154.3077
2023-05-14T11:33:48.641Z,1154.8462
2023-05-14T11:34:50.573Z,1142.3846
2023-05-14T11:35:51.964Z,1107.1538
2023-05-14T11:36:53.547Z,1102.4615
2023-05-14T11:37:55.204Z,1123.0000
2023-05-14T11:38:56.824Z,1164.8462
2023-05-14T11:39:58.558Z,1179.6154
2023-05-14T11:41:00.160Z,1146.1538
2023-05-14T11:42:01.739Z,1118.3846
2023-05-14T11:43:03.425Z,1101.0000
2023-05-14T11:44:05.964Z,1121.8462
2023-05-14T11:45:06.762Z,1160.6923
2023-05-14T11:46:08.436Z,1177.3077
2023-05-14T11:47:10.059Z,1146.3077
2023-05-14T11:48:11.649Z,1125.2307
2023-05-14T11:49:13.308Z,1113.6154
2023-05-14T11:50:14.906Z,1123.3077
2023-05-14T11:51:16.717Z,1162.3846
2023-05-14T11:52:18.209Z,1182.3077